sensor_id;sensor_type;location;lat;lon;timestamp;temperature;humidity
36280;DHT22;22317;47.936;12.742;2023-04-29T00:01:06;9.50;65.10
36280;DHT22;22317;47.936;12.742;2023-04-29T00:03:32;9.50;65.10
36280;DHT22;22317;47.936;12.742;2023-04-29T00:05:58;9.50;65.10
36280;DHT22;22317;47.936;12.742;2023-04-29T00:08:24;9.50;65.20
36280;DHT22;22317;47.936;12.742;2023-04-29T00:10:50;9.50;65.10
36280;DHT22;22317;47.936;12.742;2023-04-29T00:13:16;9.50;65.10
36280;DHT22;22317;47.936;12.742;2023-04-29T00:15:42;9.40;65.00
36280;DHT22;22317;47.936;12.742;2023-04-29T00:18:08;9.40;65.00
36280;DHT22;22317;47.936;12.742;2023-04-29T00:20:35;9.40;65.00
36280;DHT22;22317;47.936;12.742;2023-04-29T00:23:02;9.40;65.00
36280;DHT22;22317;47.936;12.742;2023-04-29T00:25:28;9.30;65.00
36280;DHT22;22317;47.936;12.742;2023-04-29T00:27:55;9.30;65.00
36280;DHT22;22317;47.936;12.742;2023-04-29T00:30:21;9.30;64.90
36280;DHT22;22317;47.936;12.742;2023-04-29T00:32:46;9.20;64.80
36280;DHT22;22317;47.936;12.742;2023-04-29T00:35:12;9.20;64.80
36280;DHT22;22317;47.936;12.742;2023-04-29T00:37:38;9.20;64.90
36280;DHT22;22317;47.936;12.742;2023-04-29T00:40:05;9.10;64.90
36280;DHT22;22317;47.936;12.742;2023-04-29T00:42:31;9.10;64.80
36280;DHT22;22317;47.936;12.742;2023-04-29T00:44:59;9.00;64.80
36280;DHT22;22317;47.936;12.742;2023-04-29T00:47:25;9.00;64.80
36280;DHT22;22317;47.936;12.742;2023-04-29T00:49:51;8.90;64.80
36280;DHT22;22317;47.936;12.742;2023-04-29T00:52:17;8.90;64.80
36280;DHT22;22317;47.936;12.742;2023-04-29T00:54:43;8.90;64.90
36280;DHT22;22317;47.936;12.742;2023-04-29T00:57:09;8.80;64.80
36280;DHT22;22317;47.936;12.742;2023-04-29T00:59:36;8.80;64.80
36280;DHT22;22317;47.936;12.742;2023-04-29T01:02:02;8.80;64.80
36280;DHT22;22317;47.936;12.742;2023-04-29T01:04:29;8.80;64.90
36280;DHT22;22317;47.936;12.742;2023-04-29T01:07:15;8.70;64.90
36280;DHT22;22317;47.936;12.742;2023-04-29T01:15:32;8.60;64.90
36280;DHT22;22317;47.936;12.742;2023-04-29T01:20:37;8.50;64.80
36280;DHT22;22317;47.936;12.742;2023-04-29T01:23:03;8.50;64.70
36280;DHT22;22317;47.936;12.742;2023-04-29T01:25:29;8.40;64.70
36280;DHT22;22317;47.936;12.742;2023-04-29T01:31:32;8.30;64.80
36280;DHT22;22317;47.936;12.742;2023-04-29T01:34:29;8.30;65.00
36280;DHT22;22317;47.936;12.742;2023-04-29T01:42:52;8.20;64.90
36280;DHT22;22317;47.936;12.742;2023-04-29T01:45:18;8.20;65.00
36280;DHT22;22317;47.936;12.742;2023-04-29T01:47:46;8.20;64.90
36280;DHT22;22317;47.936;12.742;2023-04-29T01:50:14;8.20;64.90
36280;DHT22;22317;47.936;12.742;2023-04-29T01:52:40;8.20;64.90
36280;DHT22;22317;47.936;12.742;2023-04-29T01:55:07;8.20;64.80
36280;DHT22;22317;47.936;12.742;2023-04-29T01:58:05;8.10;64.70
36280;DHT22;22317;47.936;12.742;2023-04-29T02:00:44;8.10;64.70
36280;DHT22;22317;47.936;12.742;2023-04-29T02:03:10;8.00;64.70
36280;DHT22;22317;47.936;12.742;2023-04-29T02:05:43;8.00;64.70
36280;DHT22;22317;47.936;12.742;2023-04-29T02:08:08;8.00;64.70
36280;DHT22;22317;47.936;12.742;2023-04-29T02:10:39;8.00;64.60
36280;DHT22;22317;47.936;12.742;2023-04-29T02:13:19;7.90;64.70
36280;DHT22;22317;47.936;12.742;2023-04-29T02:15:45;7.90;64.70
36280;DHT22;22317;47.936;12.742;2023-04-29T02:18:11;7.90;64.80
36280;DHT22;22317;47.936;12.742;2023-04-29T02:20:36;7.90;64.80
36280;DHT22;22317;47.936;12.742;2023-04-29T02:23:04;7.90;64.90
36280;DHT22;22317;47.936;12.742;2023-04-29T02:25:30;7.90;64.80
36280;DHT22;22317;47.936;12.742;2023-04-29T02:27:57;7.80;64.70
36280;DHT22;22317;47.936;12.742;2023-04-29T02:30:23;7.80;64.80
36280;DHT22;22317;47.936;12.742;2023-04-29T02:32:49;7.80;64.80
36280;DHT22;22317;47.936;12.742;2023-04-29T02:35:14;7.80;64.90
36280;DHT22;22317;47.936;12.742;2023-04-29T02:37:40;7.80;64.90
36280;DHT22;22317;47.936;12.742;2023-04-29T02:40:07;7.80;64.90
36280;DHT22;22317;47.936;12.742;2023-04-29T02:42:33;7.80;64.90
36280;DHT22;22317;47.936;12.742;2023-04-29T02:45:00;7.70;64.80
36280;DHT22;22317;47.936;12.742;2023-04-29T02:47:25;7.70;64.70
36280;DHT22;22317;47.936;12.742;2023-04-29T02:49:51;7.70;64.70
36280;DHT22;22317;47.936;12.742;2023-04-29T02:52:17;7.70;64.70
36280;DHT22;22317;47.936;12.742;2023-04-29T02:54:44;7.60;64.80
36280;DHT22;22317;47.936;12.742;2023-04-29T02:57:10;7.60;64.80
36280;DHT22;22317;47.936;12.742;2023-04-29T02:59:36;7.60;64.70
36280;DHT22;22317;47.936;12.742;2023-04-29T03:02:02;7.50;64.70
36280;DHT22;22317;47.936;12.742;2023-04-29T03:04:28;7.50;64.80
36280;DHT22;22317;47.936;12.742;2023-04-29T03:06:57;7.50;64.90
36280;DHT22;22317;47.936;12.742;2023-04-29T03:09:25;7.40;64.80
36280;DHT22;22317;47.936;12.742;2023-04-29T03:11:51;7.40;64.70
36280;DHT22;22317;47.936;12.742;2023-04-29T03:14:17;7.40;64.80
36280;DHT22;22317;47.936;12.742;2023-04-29T03:16:43;7.40;64.70
36280;DHT22;22317;47.936;12.742;2023-04-29T03:19:09;7.30;64.80
36280;DHT22;22317;47.936;12.742;2023-04-29T03:21:35;7.30;64.80
36280;DHT22;22317;47.936;12.742;2023-04-29T03:24:00;7.30;64.80
36280;DHT22;22317;47.936;12.742;2023-04-29T03:26:31;7.30;64.80
36280;DHT22;22317;47.936;12.742;2023-04-29T03:28:57;7.30;64.90
36280;DHT22;22317;47.936;12.742;2023-04-29T03:31:24;7.20;65.00
36280;DHT22;22317;47.936;12.742;2023-04-29T03:33:51;7.30;65.20
36280;DHT22;22317;47.936;12.742;2023-04-29T03:36:18;7.20;65.20
36280;DHT22;22317;47.936;12.742;2023-04-29T03:39:05;7.20;65.00
36280;DHT22;22317;47.936;12.742;2023-04-29T03:41:31;7.20;65.00
36280;DHT22;22317;47.936;12.742;2023-04-29T03:43:57;7.20;65.20
36280;DHT22;22317;47.936;12.742;2023-04-29T03:46:26;7.10;65.20
36280;DHT22;22317;47.936;12.742;2023-04-29T03:48:52;7.10;65.20
36280;DHT22;22317;47.936;12.742;2023-04-29T03:51:24;7.20;65.40
36280;DHT22;22317;47.936;12.742;2023-04-29T03:53:55;7.20;65.30
36280;DHT22;22317;47.936;12.742;2023-04-29T03:56:23;7.20;65.30
36280;DHT22;22317;47.936;12.742;2023-04-29T03:58:51;7.10;65.20
36280;DHT22;22317;47.936;12.742;2023-04-29T04:01:18;7.10;65.20
36280;DHT22;22317;47.936;12.742;2023-04-29T04:03:45;7.10;65.20
36280;DHT22;22317;47.936;12.742;2023-04-29T04:06:10;7.10;65.30
36280;DHT22;22317;47.936;12.742;2023-04-29T04:08:37;7.20;65.40
36280;DHT22;22317;47.936;12.742;2023-04-29T04:11:26;7.20;65.40
36280;DHT22;22317;47.936;12.742;2023-04-29T04:13:56;7.20;65.50
36280;DHT22;22317;47.936;12.742;2023-04-29T04:16:23;7.30;65.50
36280;DHT22;22317;47.936;12.742;2023-04-29T04:18:48;7.30;65.30
36280;DHT22;22317;47.936;12.742;2023-04-29T04:21:14;7.30;65.40
36280;DHT22;22317;47.936;12.742;2023-04-29T04:23:45;7.30;65.30
36280;DHT22;22317;47.936;12.742;2023-04-29T04:26:14;7.30;65.40
36280;DHT22;22317;47.936;12.742;2023-04-29T04:28:54;7.40;65.60
36280;DHT22;22317;47.936;12.742;2023-04-29T04:31:40;7.40;65.60
36280;DHT22;22317;47.936;12.742;2023-04-29T04:34:07;7.40;65.60
36280;DHT22;22317;47.936;12.742;2023-04-29T04:36:33;7.50;65.70
36280;DHT22;22317;47.936;12.742;2023-04-29T04:39:00;7.50;65.70
36280;DHT22;22317;47.936;12.742;2023-04-29T04:41:25;7.60;65.70
36280;DHT22;22317;47.936;12.742;2023-04-29T04:43:52;7.60;65.70
36280;DHT22;22317;47.936;12.742;2023-04-29T04:46:28;7.60;65.80
36280;DHT22;22317;47.936;12.742;2023-04-29T04:49:02;7.70;65.90
36280;DHT22;22317;47.936;12.742;2023-04-29T04:51:31;7.70;66.00
36280;DHT22;22317;47.936;12.742;2023-04-29T04:53:56;7.80;66.10
36280;DHT22;22317;47.936;12.742;2023-04-29T04:56:23;7.80;66.20
36280;DHT22;22317;47.936;12.742;2023-04-29T04:58:49;7.90;66.30
36280;DHT22;22317;47.936;12.742;2023-04-29T05:01:15;8.00;66.40
36280;DHT22;22317;47.936;12.742;2023-04-29T05:03:41;8.10;66.40
36280;DHT22;22317;47.936;12.742;2023-04-29T05:06:07;8.10;66.40
36280;DHT22;22317;47.936;12.742;2023-04-29T05:08:33;8.20;66.50
36280;DHT22;22317;47.936;12.742;2023-04-29T05:11:01;8.30;67.20
36280;DHT22;22317;47.936;12.742;2023-04-29T05:13:27;8.40;66.50
36280;DHT22;22317;47.936;12.742;2023-04-29T05:15:53;8.50;66.60
36280;DHT22;22317;47.936;12.742;2023-04-29T05:18:23;8.60;66.70
36280;DHT22;22317;47.936;12.742;2023-04-29T05:20:50;8.60;66.60
36280;DHT22;22317;47.936;12.742;2023-04-29T05:23:16;8.70;66.70
36280;DHT22;22317;47.936;12.742;2023-04-29T05:25:44;8.80;66.70
36280;DHT22;22317;47.936;12.742;2023-04-29T05:28:10;8.90;66.70
36280;DHT22;22317;47.936;12.742;2023-04-29T05:30:38;9.00;66.70
36280;DHT22;22317;47.936;12.742;2023-04-29T05:33:05;9.10;66.70
36280;DHT22;22317;47.936;12.742;2023-04-29T05:35:31;9.10;66.60
36280;DHT22;22317;47.936;12.742;2023-04-29T05:37:57;9.20;66.60
36280;DHT22;22317;47.936;12.742;2023-04-29T05:40:30;9.30;66.70
36280;DHT22;22317;47.936;12.742;2023-04-29T05:43:12;9.40;66.70
36280;DHT22;22317;47.936;12.742;2023-04-29T05:45:39;9.50;66.70
36280;DHT22;22317;47.936;12.742;2023-04-29T05:48:05;9.60;66.80
36280;DHT22;22317;47.936;12.742;2023-04-29T05:50:31;9.70;66.90
36280;DHT22;22317;47.936;12.742;2023-04-29T05:52:57;9.80;66.90
36280;DHT22;22317;47.936;12.742;2023-04-29T05:55:24;9.90;66.90
36280;DHT22;22317;47.936;12.742;2023-04-29T05:57:50;10.00;66.90
36280;DHT22;22317;47.936;12.742;2023-04-29T06:00:16;10.10;66.70
36280;DHT22;22317;47.936;12.742;2023-04-29T06:02:43;10.20;66.70
36280;DHT22;22317;47.936;12.742;2023-04-29T06:05:11;10.30;66.90
36280;DHT22;22317;47.936;12.742;2023-04-29T06:07:56;10.40;66.90
36280;DHT22;22317;47.936;12.742;2023-04-29T06:10:41;10.40;66.80
36280;DHT22;22317;47.936;12.742;2023-04-29T06:13:08;10.50;66.70
36280;DHT22;22317;47.936;12.742;2023-04-29T06:15:34;10.60;66.70
36280;DHT22;22317;47.936;12.742;2023-04-29T06:18:00;10.60;66.50
36280;DHT22;22317;47.936;12.742;2023-04-29T06:20:26;10.70;66.30
36280;DHT22;22317;47.936;12.742;2023-04-29T06:22:52;10.70;66.30
36280;DHT22;22317;47.936;12.742;2023-04-29T06:25:18;10.70;66.20
36280;DHT22;22317;47.936;12.742;2023-04-29T06:27:48;10.80;66.40
36280;DHT22;22317;47.936;12.742;2023-04-29T06:30:16;10.80;66.40
36280;DHT22;22317;47.936;12.742;2023-04-29T06:32:43;10.90;66.40
36280;DHT22;22317;47.936;12.742;2023-04-29T06:35:09;11.00;66.50
36280;DHT22;22317;47.936;12.742;2023-04-29T06:37:57;11.00;66.30
36280;DHT22;22317;47.936;12.742;2023-04-29T06:40:28;11.10;66.10
36280;DHT22;22317;47.936;12.742;2023-04-29T06:43:11;11.10;66.20
36280;DHT22;22317;47.936;12.742;2023-04-29T06:45:55;11.20;66.20
36280;DHT22;22317;47.936;12.742;2023-04-29T06:48:42;11.30;66.20
36280;DHT22;22317;47.936;12.742;2023-04-29T06:51:08;11.40;66.00
36280;DHT22;22317;47.936;12.742;2023-04-29T06:53:35;11.50;66.00
36280;DHT22;22317;47.936;12.742;2023-04-29T06:56:01;11.60;66.10
36280;DHT22;22317;47.936;12.742;2023-04-29T06:58:27;11.70;65.80
36280;DHT22;22317;47.936;12.742;2023-04-29T07:00:52;11.80;65.80
36280;DHT22;22317;47.936;12.742;2023-04-29T07:03:20;11.80;65.40
36280;DHT22;22317;47.936;12.742;2023-04-29T07:05:46;11.90;65.40
36280;DHT22;22317;47.936;12.742;2023-04-29T07:08:13;11.90;65.40
36280;DHT22;22317;47.936;12.742;2023-04-29T07:10:39;12.00;65.30
36280;DHT22;22317;47.936;12.742;2023-04-29T07:13:06;12.10;65.40
36280;DHT22;22317;47.936;12.742;2023-04-29T07:15:35;12.20;65.30
36280;DHT22;22317;47.936;12.742;2023-04-29T07:18:05;12.40;65.30
36280;DHT22;22317;47.936;12.742;2023-04-29T07:20:31;12.50;65.00
36280;DHT22;22317;47.936;12.742;2023-04-29T07:22:58;12.60;64.90
36280;DHT22;22317;47.936;12.742;2023-04-29T07:25:25;12.80;65.00
36280;DHT22;22317;47.936;12.742;2023-04-29T07:27:52;12.90;64.70
36280;DHT22;22317;47.936;12.742;2023-04-29T07:30:18;13.00;64.10
36280;DHT22;22317;47.936;12.742;2023-04-29T07:32:44;13.10;63.90
36280;DHT22;22317;47.936;12.742;2023-04-29T07:35:09;13.20;63.60
36280;DHT22;22317;47.936;12.742;2023-04-29T07:37:35;13.30;63.40
36280;DHT22;22317;47.936;12.742;2023-04-29T07:40:03;13.40;63.00
36280;DHT22;22317;47.936;12.742;2023-04-29T07:42:29;13.40;62.60
36280;DHT22;22317;47.936;12.742;2023-04-29T07:44:55;13.40;62.30
36280;DHT22;22317;47.936;12.742;2023-04-29T07:47:20;13.40;62.20
36280;DHT22;22317;47.936;12.742;2023-04-29T07:49:46;13.40;62.40
36280;DHT22;22317;47.936;12.742;2023-04-29T07:52:12;13.60;62.60
36280;DHT22;22317;47.936;12.742;2023-04-29T07:54:38;13.80;62.30
36280;DHT22;22317;47.936;12.742;2023-04-29T07:57:03;13.80;61.80
36280;DHT22;22317;47.936;12.742;2023-04-29T07:59:30;13.90;61.40
36280;DHT22;22317;47.936;12.742;2023-04-29T08:01:56;14.10;61.40
36280;DHT22;22317;47.936;12.742;2023-04-29T08:04:22;14.20;61.30
36280;DHT22;22317;47.936;12.742;2023-04-29T08:06:57;14.40;61.00
36280;DHT22;22317;47.936;12.742;2023-04-29T08:09:23;14.50;60.80
36280;DHT22;22317;47.936;12.742;2023-04-29T08:11:48;14.70;60.40
36280;DHT22;22317;47.936;12.742;2023-04-29T08:14:14;14.80;59.80
36280;DHT22;22317;47.936;12.742;2023-04-29T08:16:40;14.80;59.60
36280;DHT22;22317;47.936;12.742;2023-04-29T08:19:06;14.80;59.30
36280;DHT22;22317;47.936;12.742;2023-04-29T08:21:31;14.80;58.90
36280;DHT22;22317;47.936;12.742;2023-04-29T08:23:58;14.80;59.10
36280;DHT22;22317;47.936;12.742;2023-04-29T08:26:25;14.80;59.00
36280;DHT22;22317;47.936;12.742;2023-04-29T08:28:51;14.90;59.20
36280;DHT22;22317;47.936;12.742;2023-04-29T08:31:19;14.90;59.50
36280;DHT22;22317;47.936;12.742;2023-04-29T08:33:45;15.00;59.20
36280;DHT22;22317;47.936;12.742;2023-04-29T08:36:11;15.10;59.20
36280;DHT22;22317;47.936;12.742;2023-04-29T08:38:37;15.20;58.70
36280;DHT22;22317;47.936;12.742;2023-04-29T08:41:03;15.20;58.30
36280;DHT22;22317;47.936;12.742;2023-04-29T08:43:29;15.10;58.20
36280;DHT22;22317;47.936;12.742;2023-04-29T08:45:57;15.10;58.10
36280;DHT22;22317;47.936;12.742;2023-04-29T08:48:24;15.00;57.60
36280;DHT22;22317;47.936;12.742;2023-04-29T08:50:51;14.80;57.30
36280;DHT22;22317;47.936;12.742;2023-04-29T08:53:16;14.70;57.10
36280;DHT22;22317;47.936;12.742;2023-04-29T08:55:46;14.50;57.10
36280;DHT22;22317;47.936;12.742;2023-04-29T08:58:14;14.30;57.10
36280;DHT22;22317;47.936;12.742;2023-04-29T09:00:41;14.10;57.20
36280;DHT22;22317;47.936;12.742;2023-04-29T09:03:24;14.00;57.50
36280;DHT22;22317;47.936;12.742;2023-04-29T09:05:53;13.80;57.70
36280;DHT22;22317;47.936;12.742;2023-04-29T09:08:23;13.80;58.00
36280;DHT22;22317;47.936;12.742;2023-04-29T09:10:52;13.70;58.10
36280;DHT22;22317;47.936;12.742;2023-04-29T09:13:31;13.80;58.70
36280;DHT22;22317;47.936;12.742;2023-04-29T09:15:57;13.90;59.10
36280;DHT22;22317;47.936;12.742;2023-04-29T09:18:49;14.10;59.30
36280;DHT22;22317;47.936;12.742;2023-04-29T09:23:56;14.60;59.40
36280;DHT22;22317;47.936;12.742;2023-04-29T09:26:22;14.80;59.10
36280;DHT22;22317;47.936;12.742;2023-04-29T09:29:08;15.10;59.30
36280;DHT22;22317;47.936;12.742;2023-04-29T09:31:35;15.40;58.40
36280;DHT22;22317;47.936;12.742;2023-04-29T09:34:01;15.40;57.70
36280;DHT22;22317;47.936;12.742;2023-04-29T09:39:03;15.40;57.40
36280;DHT22;22317;47.936;12.742;2023-04-29T09:41:41;15.30;57.20
36280;DHT22;22317;47.936;12.742;2023-04-29T09:44:08;15.30;57.30
36280;DHT22;22317;47.936;12.742;2023-04-29T09:46:35;15.30;57.40
36280;DHT22;22317;47.936;12.742;2023-04-29T09:49:20;15.40;57.90
36280;DHT22;22317;47.936;12.742;2023-04-29T09:51:52;15.60;58.10
36280;DHT22;22317;47.936;12.742;2023-04-29T09:54:26;15.80;57.90
36280;DHT22;22317;47.936;12.742;2023-04-29T09:56:54;15.80;57.20
36280;DHT22;22317;47.936;12.742;2023-04-29T09:59:20;15.90;57.70
36280;DHT22;22317;47.936;12.742;2023-04-29T10:01:48;16.00;57.30
36280;DHT22;22317;47.936;12.742;2023-04-29T10:04:15;16.20;57.30
36280;DHT22;22317;47.936;12.742;2023-04-29T10:06:47;16.30;57.10
36280;DHT22;22317;47.936;12.742;2023-04-29T10:09:14;16.40;56.50
36280;DHT22;22317;47.936;12.742;2023-04-29T10:11:41;16.60;56.70
36280;DHT22;22317;47.936;12.742;2023-04-29T10:14:12;16.90;57.10
36280;DHT22;22317;47.936;12.742;2023-04-29T10:16:48;17.10;56.70
36280;DHT22;22317;47.936;12.742;2023-04-29T10:19:24;17.30;55.50
36280;DHT22;22317;47.936;12.742;2023-04-29T10:21:53;17.50;54.70
36280;DHT22;22317;47.936;12.742;2023-04-29T10:24:21;17.50;53.60
36280;DHT22;22317;47.936;12.742;2023-04-29T10:26:49;17.40;53.10
36280;DHT22;22317;47.936;12.742;2023-04-29T10:29:19;17.40;53.00
36280;DHT22;22317;47.936;12.742;2023-04-29T10:31:47;17.50;53.10
36280;DHT22;22317;47.936;12.742;2023-04-29T10:34:16;17.60;53.00
36280;DHT22;22317;47.936;12.742;2023-04-29T10:36:42;17.70;52.10
36280;DHT22;22317;47.936;12.742;2023-04-29T10:39:14;17.70;51.60
36280;DHT22;22317;47.936;12.742;2023-04-29T10:41:43;17.70;51.30
36280;DHT22;22317;47.936;12.742;2023-04-29T10:44:13;17.70;51.30
36280;DHT22;22317;47.936;12.742;2023-04-29T10:46:39;17.70;51.00
36280;DHT22;22317;47.936;12.742;2023-04-29T10:49:07;17.60;50.60
36280;DHT22;22317;47.936;12.742;2023-04-29T10:51:42;17.40;50.60
36280;DHT22;22317;47.936;12.742;2023-04-29T10:54:14;17.40;51.20
36280;DHT22;22317;47.936;12.742;2023-04-29T10:56:48;17.40;51.30
36280;DHT22;22317;47.936;12.742;2023-04-29T10:59:20;17.60;51.10
36280;DHT22;22317;47.936;12.742;2023-04-29T11:01:51;17.70;50.90
36280;DHT22;22317;47.936;12.742;2023-04-29T11:04:18;18.00;51.40
36280;DHT22;22317;47.936;12.742;2023-04-29T11:06:52;18.40;51.30
36280;DHT22;22317;47.936;12.742;2023-04-29T11:09:31;18.60;50.90
36280;DHT22;22317;47.936;12.742;2023-04-29T11:12:01;19.00;50.60
36280;DHT22;22317;47.936;12.742;2023-04-29T11:14:41;19.30;49.80
36280;DHT22;22317;47.936;12.742;2023-04-29T11:17:09;19.50;48.20
36280;DHT22;22317;47.936;12.742;2023-04-29T11:19:44;19.60;47.90
36280;DHT22;22317;47.936;12.742;2023-04-29T11:24:52;19.80;47.30
36280;DHT22;22317;47.936;12.742;2023-04-29T11:27:19;20.00;47.30
36280;DHT22;22317;47.936;12.742;2023-04-29T11:29:48;20.10;46.80
36280;DHT22;22317;47.936;12.742;2023-04-29T11:32:14;20.00;46.10
36280;DHT22;22317;47.936;12.742;2023-04-29T11:34:40;19.80;45.90
36280;DHT22;22317;47.936;12.742;2023-04-29T11:37:06;19.60;45.90
36280;DHT22;22317;47.936;12.742;2023-04-29T11:39:35;19.40;46.10
36280;DHT22;22317;47.936;12.742;2023-04-29T11:42:07;19.20;46.20
36280;DHT22;22317;47.936;12.742;2023-04-29T11:44:34;18.90;46.60
36280;DHT22;22317;47.936;12.742;2023-04-29T11:47:06;18.60;47.00
36280;DHT22;22317;47.936;12.742;2023-04-29T11:49:33;18.30;47.30
36280;DHT22;22317;47.936;12.742;2023-04-29T11:51:59;18.00;47.60
36280;DHT22;22317;47.936;12.742;2023-04-29T11:54:26;17.80;47.90
36280;DHT22;22317;47.936;12.742;2023-04-29T11:56:53;17.60;48.40
36280;DHT22;22317;47.936;12.742;2023-04-29T11:59:20;17.70;49.60
36280;DHT22;22317;47.936;12.742;2023-04-29T12:01:47;18.00;50.80
36280;DHT22;22317;47.936;12.742;2023-04-29T12:04:13;18.30;51.30
36280;DHT22;22317;47.936;12.742;2023-04-29T12:06:39;18.60;50.50
36280;DHT22;22317;47.936;12.742;2023-04-29T12:09:06;18.80;50.20
36280;DHT22;22317;47.936;12.742;2023-04-29T12:11:33;18.90;49.90
36280;DHT22;22317;47.936;12.742;2023-04-29T12:14:00;18.90;49.20
36280;DHT22;22317;47.936;12.742;2023-04-29T12:16:28;18.70;48.40
36280;DHT22;22317;47.936;12.742;2023-04-29T12:18:55;18.50;48.30
36280;DHT22;22317;47.936;12.742;2023-04-29T12:21:21;18.20;48.40
36280;DHT22;22317;47.936;12.742;2023-04-29T12:23:47;17.80;48.80
36280;DHT22;22317;47.936;12.742;2023-04-29T12:26:13;17.50;48.80
36280;DHT22;22317;47.936;12.742;2023-04-29T12:28:39;17.00;48.80
36280;DHT22;22317;47.936;12.742;2023-04-29T12:31:08;16.50;49.00
36280;DHT22;22317;47.936;12.742;2023-04-29T12:33:35;16.10;49.50
36280;DHT22;22317;47.936;12.742;2023-04-29T12:36:02;15.80;50.20
36280;DHT22;22317;47.936;12.742;2023-04-29T12:38:31;15.60;50.80
36280;DHT22;22317;47.936;12.742;2023-04-29T12:41:00;15.60;51.40
36280;DHT22;22317;47.936;12.742;2023-04-29T12:43:32;15.50;51.40
36280;DHT22;22317;47.936;12.742;2023-04-29T12:46:08;15.50;51.60
36280;DHT22;22317;47.936;12.742;2023-04-29T12:48:36;15.60;51.80
36280;DHT22;22317;47.936;12.742;2023-04-29T12:51:03;15.70;52.10
36280;DHT22;22317;47.936;12.742;2023-04-29T12:53:30;15.90;52.70
36280;DHT22;22317;47.936;12.742;2023-04-29T12:55:56;16.20;52.90
36280;DHT22;22317;47.936;12.742;2023-04-29T12:58:22;16.50;52.80
36280;DHT22;22317;47.936;12.742;2023-04-29T13:00:48;16.80;52.50
36280;DHT22;22317;47.936;12.742;2023-04-29T13:03:14;17.00;52.20
36280;DHT22;22317;47.936;12.742;2023-04-29T13:05:41;17.30;52.00
36280;DHT22;22317;47.936;12.742;2023-04-29T13:08:07;17.60;52.20
36280;DHT22;22317;47.936;12.742;2023-04-29T13:10:36;17.90;51.60
36280;DHT22;22317;47.936;12.742;2023-04-29T13:13:02;18.10;50.60
36280;DHT22;22317;47.936;12.742;2023-04-29T13:15:28;18.10;49.80
36280;DHT22;22317;47.936;12.742;2023-04-29T13:17:54;18.10;49.20
36280;DHT22;22317;47.936;12.742;2023-04-29T13:20:20;18.20;49.80
36280;DHT22;22317;47.936;12.742;2023-04-29T13:22:46;18.30;49.10
36280;DHT22;22317;47.936;12.742;2023-04-29T13:25:12;18.40;48.50
36280;DHT22;22317;47.936;12.742;2023-04-29T13:27:39;18.50;48.40
36280;DHT22;22317;47.936;12.742;2023-04-29T13:30:05;18.70;48.10
36280;DHT22;22317;47.936;12.742;2023-04-29T13:32:32;18.80;47.80
36280;DHT22;22317;47.936;12.742;2023-04-29T13:34:57;18.70;47.20
36280;DHT22;22317;47.936;12.742;2023-04-29T13:37:23;18.70;47.00
36280;DHT22;22317;47.936;12.742;2023-04-29T13:39:49;18.80;47.40
36280;DHT22;22317;47.936;12.742;2023-04-29T13:42:15;18.90;47.60
36280;DHT22;22317;47.936;12.742;2023-04-29T13:44:40;19.10;47.20
36280;DHT22;22317;47.936;12.742;2023-04-29T13:47:12;19.20;46.40
36280;DHT22;22317;47.936;12.742;2023-04-29T13:49:39;19.00;46.10
36280;DHT22;22317;47.936;12.742;2023-04-29T13:52:06;18.90;46.00
36280;DHT22;22317;47.936;12.742;2023-04-29T13:54:32;18.90;45.80
36280;DHT22;22317;47.936;12.742;2023-04-29T13:56:59;18.70;45.70
36280;DHT22;22317;47.936;12.742;2023-04-29T13:59:29;18.70;45.90
36280;DHT22;22317;47.936;12.742;2023-04-29T14:01:56;18.70;45.90
36280;DHT22;22317;47.936;12.742;2023-04-29T14:04:22;18.80;45.90
36280;DHT22;22317;47.936;12.742;2023-04-29T14:06:48;18.80;45.90
36280;DHT22;22317;47.936;12.742;2023-04-29T14:09:14;18.90;46.10
36280;DHT22;22317;47.936;12.742;2023-04-29T14:11:40;19.00;46.00
36280;DHT22;22317;47.936;12.742;2023-04-29T14:14:06;19.00;45.50
36280;DHT22;22317;47.936;12.742;2023-04-29T14:16:32;18.90;45.20
36280;DHT22;22317;47.936;12.742;2023-04-29T14:18:57;18.70;44.80
36280;DHT22;22317;47.936;12.742;2023-04-29T14:21:23;18.50;44.80
36280;DHT22;22317;47.936;12.742;2023-04-29T14:23:49;18.40;45.20
36280;DHT22;22317;47.936;12.742;2023-04-29T14:26:15;18.50;46.00
36280;DHT22;22317;47.936;12.742;2023-04-29T14:28:41;18.80;46.20
36280;DHT22;22317;47.936;12.742;2023-04-29T14:31:07;18.90;45.70
36280;DHT22;22317;47.936;12.742;2023-04-29T14:33:33;19.10;45.70
36280;DHT22;22317;47.936;12.742;2023-04-29T14:35:59;19.50;46.50
36280;DHT22;22317;47.936;12.742;2023-04-29T14:38:27;20.10;46.20
36280;DHT22;22317;47.936;12.742;2023-04-29T14:40:53;20.70;45.50
36280;DHT22;22317;47.936;12.742;2023-04-29T14:43:18;21.20;45.00
36280;DHT22;22317;47.936;12.742;2023-04-29T14:45:44;21.40;43.90
36280;DHT22;22317;47.936;12.742;2023-04-29T14:48:10;21.40;42.70
36280;DHT22;22317;47.936;12.742;2023-04-29T14:50:36;21.10;42.10
36280;DHT22;22317;47.936;12.742;2023-04-29T14:53:02;20.90;42.00
36280;DHT22;22317;47.936;12.742;2023-04-29T14:55:28;20.60;41.90
36280;DHT22;22317;47.936;12.742;2023-04-29T14:57:54;20.50;42.10
36280;DHT22;22317;47.936;12.742;2023-04-29T15:00:20;20.40;42.40
36280;DHT22;22317;47.936;12.742;2023-04-29T15:02:46;20.30;42.60
36280;DHT22;22317;47.936;12.742;2023-04-29T15:05:11;20.10;42.60
36280;DHT22;22317;47.936;12.742;2023-04-29T15:07:37;20.00;42.80
36280;DHT22;22317;47.936;12.742;2023-04-29T15:10:03;19.80;42.90
36280;DHT22;22317;47.936;12.742;2023-04-29T15:12:31;19.70;43.30
36280;DHT22;22317;47.936;12.742;2023-04-29T15:14:57;19.50;43.30
36280;DHT22;22317;47.936;12.742;2023-04-29T15:17:22;19.40;43.60
36280;DHT22;22317;47.936;12.742;2023-04-29T15:19:48;19.20;43.70
36280;DHT22;22317;47.936;12.742;2023-04-29T15:22:14;19.10;43.90
36280;DHT22;22317;47.936;12.742;2023-04-29T15:24:40;18.90;43.80
36280;DHT22;22317;47.936;12.742;2023-04-29T15:27:05;18.70;43.60
36280;DHT22;22317;47.936;12.742;2023-04-29T15:29:31;18.60;43.80
36280;DHT22;22317;47.936;12.742;2023-04-29T15:31:59;18.50;44.00
36280;DHT22;22317;47.936;12.742;2023-04-29T15:34:25;18.40;44.00
36280;DHT22;22317;47.936;12.742;2023-04-29T15:36:50;18.40;44.30
36280;DHT22;22317;47.936;12.742;2023-04-29T15:39:16;18.40;44.50
36280;DHT22;22317;47.936;12.742;2023-04-29T15:41:42;18.40;44.60
36280;DHT22;22317;47.936;12.742;2023-04-29T15:44:08;18.40;44.40
36280;DHT22;22317;47.936;12.742;2023-04-29T15:46:33;18.50;43.90
36280;DHT22;22317;47.936;12.742;2023-04-29T15:48:59;18.40;43.40
36280;DHT22;22317;47.936;12.742;2023-04-29T15:51:25;18.40;43.60
36280;DHT22;22317;47.936;12.742;2023-04-29T15:53:51;18.30;43.50